Time;durP1;ratioP1;P1;durP2;ratioP2;P2;SDS_P1;SDS_P2;PMS_P1;PMS_P2;Temp;Humidity;BMP_temperature;BMP_pressure;BME280_temperature;BME280_humidity;BME280_pressure;Samples;Min_cycle;Max_cycle;Signal;HPM_P1;HPM_P2
2023/12/26 00:01:05;;;;;;;1.53;1.43;;;;;;;;;;5050074;28;20641;-84
2023/12/26 00:03:32;;;;;;;1.40;1.23;;;;;;;;;;5050845;28;20664;-84
2023/12/26 00:05:59;;;;;;;1.30;1.20;;;;;;;;;;5047559;28;20234;-83
2023/12/26 00:08:26;;;;;;;1.10;1.10;;;;;;;;;;5051891;28;20746;-85
2023/12/26 00:10:53;;;;;;;1.10;1.10;;;;;;;;;;5050246;28;20234;-84
2023/12/26 00:13:20;;;;;;;0.90;0.90;;;;;;;;;;5050843;28;20252;-84
2023/12/26 00:15:48;;;;;;;1.23;1.23;;;;;;;;;;5055240;28;20233;-84
2023/12/26 00:18:15;;;;;;;1.33;1.33;;;;;;;;;;5058318;28;20294;-84
2023/12/26 00:20:43;;;;;;;1.00;1.00;;;;;;;;;;5056583;28;20238;-85
2023/12/26 00:23:10;;;;;;;1.07;1.07;;;;;;;;;;5058125;28;20201;-84
2023/12/26 00:25:37;;;;;;;1.53;1.43;;;;;;;;;;5057127;28;20238;-85
2023/12/26 00:28:04;;;;;;;1.43;1.43;;;;;;;;;;5039754;28;20262;-84
2023/12/26 00:30:31;;;;;;;1.63;1.53;;;;;;;;;;5039777;28;20234;-84
2023/12/26 00:33:00;;;;;;;1.20;1.20;;;;;;;;;;5054396;28;20661;-83
2023/12/26 00:35:27;;;;;;;1.50;1.43;;;;;;;;;;5053914;28;20233;-84
2023/12/26 00:37:54;;;;;;;1.13;1.13;;;;;;;;;;5054685;28;20233;-85
2023/12/26 00:40:21;;;;;;;1.40;1.30;;;;;;;;;;5053933;28;20215;-84
2023/12/26 00:42:48;;;;;;;1.10;1.10;;;;;;;;;;5054697;28;20629;-85
2023/12/26 00:45:15;;;;;;;0.97;0.97;;;;;;;;;;5054167;28;20252;-84
2023/12/26 00:47:42;;;;;;;1.10;1.10;;;;;;;;;;5054335;28;20209;-86
2023/12/26 00:50:13;;;;;;;1.20;1.20;;;;;;;;;;5053666;28;20230;-85
2023/12/26 00:52:40;;;;;;;1.63;1.53;;;;;;;;;;5053759;28;20209;-85
2023/12/26 00:55:08;;;;;;;1.00;1.00;;;;;;;;;;5053191;28;20206;-84
2023/12/26 00:57:35;;;;;;;1.10;1.10;;;;;;;;;;5053998;28;20226;-85
2023/12/26 01:00:04;;;;;;;1.20;1.20;;;;;;;;;;5032711;28;20235;-84
2023/12/26 01:02:31;;;;;;;1.00;1.00;;;;;;;;;;5053467;28;20573;-85
2023/12/26 01:04:58;;;;;;;1.80;1.10;;;;;;;;;;5053293;28;20259;-85
2023/12/26 01:07:26;;;;;;;1.00;1.00;;;;;;;;;;5053037;28;20257;-85
2023/12/26 01:09:54;;;;;;;1.10;1.10;;;;;;;;;;5052752;28;20230;-85
2023/12/26 01:12:21;;;;;;;1.37;1.37;;;;;;;;;;5052076;28;20870;-85
2023/12/26 01:14:48;;;;;;;1.03;1.03;;;;;;;;;;5052721;28;20620;-85
2023/12/26 01:17:15;;;;;;;1.13;1.13;;;;;;;;;;5052679;28;20237;-85
2023/12/26 01:19:42;;;;;;;1.00;1.00;;;;;;;;;;5053120;28;20229;-85
2023/12/26 01:22:09;;;;;;;1.20;1.20;;;;;;;;;;5051863;28;20241;-85
2023/12/26 01:24:37;;;;;;;1.17;1.17;;;;;;;;;;5052037;28;20202;-85
2023/12/26 01:27:05;;;;;;;1.10;1.10;;;;;;;;;;5038918;28;20361;-86
2023/12/26 01:29:32;;;;;;;1.10;1.10;;;;;;;;;;5033097;28;20639;-86
2023/12/26 01:31:59;;;;;;;1.00;1.00;;;;;;;;;;5047840;28;20767;-85
2023/12/26 01:34:26;;;;;;;1.20;1.20;;;;;;;;;;5052240;28;20206;-85
2023/12/26 01:36:53;;;;;;;1.07;1.07;;;;;;;;;;5051795;28;20232;-85
2023/12/26 01:39:20;;;;;;;1.03;1.03;;;;;;;;;;5052570;28;20577;-85
2023/12/26 01:41:48;;;;;;;1.20;1.20;;;;;;;;;;5051380;28;20238;-85
2023/12/26 01:44:15;;;;;;;1.00;1.00;;;;;;;;;;5051918;28;20210;-85
2023/12/26 01:46:42;;;;;;;1.10;1.10;;;;;;;;;;5051886;28;20292;-85
2023/12/26 01:49:09;;;;;;;1.23;1.23;;;;;;;;;;5051772;28;20276;-85
2023/12/26 01:51:37;;;;;;;1.20;1.20;;;;;;;;;;5049791;28;20280;-85
2023/12/26 01:54:04;;;;;;;1.10;1.10;;;;;;;;;;5031915;28;20210;-85
2023/12/26 01:56:31;;;;;;;1.20;1.20;;;;;;;;;;5043951;28;20233;-85
2023/12/26 01:59:00;;;;;;;1.40;1.30;;;;;;;;;;5052105;28;20233;-86
2023/12/26 02:01:27;;;;;;;1.20;1.20;;;;;;;;;;5050198;28;20897;-84
2023/12/26 02:03:55;;;;;;;1.20;1.20;;;;;;;;;;5051452;28;20669;-84
2023/12/26 02:06:22;;;;;;;1.23;1.23;;;;;;;;;;5051443;28;20299;-84
2023/12/26 02:08:49;;;;;;;1.37;1.30;;;;;;;;;;5059331;28;20220;-84
2023/12/26 02:11:16;;;;;;;1.20;1.20;;;;;;;;;;5070931;28;20237;-84
2023/12/26 02:13:43;;;;;;;1.23;1.23;;;;;;;;;;5056638;28;20214;-84
2023/12/26 02:16:13;;;;;;;1.30;1.30;;;;;;;;;;5048515;28;20238;-84
2023/12/26 02:18:41;;;;;;;1.63;1.50;;;;;;;;;;5032634;28;20606;-85
2023/12/26 02:21:08;;;;;;;1.30;1.30;;;;;;;;;;5050761;28;20729;-84
2023/12/26 02:23:35;;;;;;;1.20;1.20;;;;;;;;;;5038213;28;20198;-85
2023/12/26 02:26:04;;;;;;;1.17;1.07;;;;;;;;;;5039523;28;20226;-85
2023/12/26 02:28:31;;;;;;;1.30;1.17;;;;;;;;;;5051473;28;20689;-85
2023/12/26 02:30:59;;;;;;;1.20;1.20;;;;;;;;;;5050546;28;20238;-85
2023/12/26 02:33:26;;;;;;;2.80;1.27;;;;;;;;;;5050755;28;20206;-85
2023/12/26 02:35:53;;;;;;;1.53;1.47;;;;;;;;;;5039206;28;20238;-85
2023/12/26 02:38:20;;;;;;;1.30;1.30;;;;;;;;;;5051102;28;20244;-85
2023/12/26 02:40:51;;;;;;;1.37;1.27;;;;;;;;;;5049585;28;20229;-85
2023/12/26 02:43:20;;;;;;;1.30;1.30;;;;;;;;;;5035098;28;20190;-85
2023/12/26 02:45:48;;;;;;;1.47;1.40;;;;;;;;;;5045535;28;20230;-85
2023/12/26 02:48:15;;;;;;;1.67;1.57;;;;;;;;;;5031449;28;20313;-84
2023/12/26 02:50:42;;;;;;;1.50;1.40;;;;;;;;;;5036121;28;20233;-85
2023/12/26 02:53:09;;;;;;;2.53;1.50;;;;;;;;;;5051398;28;20191;-84
2023/12/26 02:55:36;;;;;;;2.00;1.50;;;;;;;;;;5050883;28;20234;-85
2023/12/26 02:58:03;;;;;;;4.63;1.70;;;;;;;;;;5051267;28;20617;-84
2023/12/26 03:00:32;;;;;;;1.53;1.43;;;;;;;;;;5049330;28;20287;-85
2023/12/26 03:02:59;;;;;;;2.00;1.50;;;;;;;;;;5039950;28;20203;-84
2023/12/26 03:05:26;;;;;;;2.33;1.30;;;;;;;;;;5045133;28;20704;-85
2023/12/26 03:07:53;;;;;;;2.60;1.47;;;;;;;;;;5048205;28;20203;-84
2023/12/26 03:10:20;;;;;;;1.67;1.57;;;;;;;;;;5047583;28;20225;-84
2023/12/26 03:12:47;;;;;;;1.53;1.43;;;;;;;;;;5044764;28;20222;-85
2023/12/26 03:15:15;;;;;;;2.30;1.40;;;;;;;;;;5032309;28;20222;-86
2023/12/26 03:17:44;;;;;;;3.43;2.17;;;;;;;;;;5039457;28;20218;-84
2023/12/26 03:20:11;;;;;;;1.90;1.50;;;;;;;;;;5045314;28;20218;-84
2023/12/26 03:22:40;;;;;;;1.40;1.37;;;;;;;;;;5050851;28;20214;-85
2023/12/26 03:25:07;;;;;;;3.97;1.90;;;;;;;;;;5034770;28;20222;-85
2023/12/26 03:27:34;;;;;;;1.90;1.80;;;;;;;;;;5050935;28;20198;-84
2023/12/26 03:30:01;;;;;;;1.63;1.53;;;;;;;;;;5050863;28;20226;-85
2023/12/26 03:32:28;;;;;;;3.53;2.00;;;;;;;;;;5044670;28;20267;-85
2023/12/26 03:34:56;;;;;;;1.70;1.60;;;;;;;;;;5050572;28;20214;-84
2023/12/26 03:37:23;;;;;;;2.07;1.87;;;;;;;;;;5049325;28;20284;-85
2023/12/26 03:39:50;;;;;;;4.43;1.73;;;;;;;;;;5050242;28;20271;-85
2023/12/26 03:42:17;;;;;;;2.77;1.63;;;;;;;;;;5049853;28;20583;-85
2023/12/26 03:44:46;;;;;;;3.20;1.80;;;;;;;;;;5050270;28;20213;-85
2023/12/26 03:47:13;;;;;;;4.53;1.70;;;;;;;;;;5050131;28;20236;-85
2023/12/26 03:49:40;;;;;;;1.90;1.40;;;;;;;;;;5052541;28;20218;-85
2023/12/26 03:52:09;;;;;;;1.70;1.60;;;;;;;;;;5053853;28;20249;-85
2023/12/26 03:54:36;;;;;;;1.87;1.63;;;;;;;;;;5054341;28;20206;-85
2023/12/26 03:57:04;;;;;;;4.30;2.10;;;;;;;;;;5053871;28;20295;-86
2023/12/26 03:59:31;;;;;;;2.27;1.83;;;;;;;;;;5054233;28;20628;-85
2023/12/26 04:01:58;;;;;;;3.67;2.23;;;;;;;;;;5038950;28;20284;-86
2023/12/26 04:04:25;;;;;;;2.53;2.20;;;;;;;;;;5034223;28;20234;-85
2023/12/26 04:06:52;;;;;;;5.43;1.83;;;;;;;;;;5049055;28;20233;-86
2023/12/26 04:09:20;;;;;;;5.63;2.20;;;;;;;;;;5054188;28;20222;-86
2023/12/26 04:11:47;;;;;;;3.10;2.23;;;;;;;;;;5053113;28;20589;-86
2023/12/26 04:14:14;;;;;;;3.33;2.07;;;;;;;;;;5053599;28;20681;-86
2023/12/26 04:16:41;;;;;;;4.43;1.83;;;;;;;;;;5053686;28;20226;-85
2023/12/26 04:19:08;;;;;;;2.50;2.27;;;;;;;;;;5053862;28;20226;-86
2023/12/26 04:21:35;;;;;;;3.20;1.87;;;;;;;;;;5053009;28;20237;-85
2023/12/26 04:24:02;;;;;;;2.50;1.60;;;;;;;;;;5054029;28;20203;-86
2023/12/26 04:26:31;;;;;;;2.07;1.87;;;;;;;;;;5053358;28;20291;-84
2023/12/26 04:28:58;;;;;;;2.70;1.73;;;;;;;;;;5053943;28;20222;-84
2023/12/26 04:31:25;;;;;;;3.37;2.20;;;;;;;;;;5052939;28;20237;-85
2023/12/26 04:33:52;;;;;;;2.80;1.80;;;;;;;;;;5053831;28;20205;-85
2023/12/26 04:36:19;;;;;;;3.03;2.20;;;;;;;;;;5053358;28;20283;-85
2023/12/26 04:38:46;;;;;;;4.10;1.97;;;;;;;;;;5053156;28;20648;-85
2023/12/26 04:41:13;;;;;;;1.93;1.73;;;;;;;;;;5052754;28;20229;-85
2023/12/26 04:43:41;;;;;;;3.00;2.10;;;;;;;;;;5046727;28;20198;-85
2023/12/26 04:46:08;;;;;;;4.50;2.00;;;;;;;;;;5053181;28;20233;-85
2023/12/26 04:48:35;;;;;;;3.33;1.77;;;;;;;;;;5053832;28;20217;-85
2023/12/26 04:51:03;;;;;;;6.10;1.80;;;;;;;;;;5052453;28;20245;-84
2023/12/26 04:53:30;;;;;;;6.90;2.50;;;;;;;;;;5053666;28;20237;-84
2023/12/26 04:55:57;;;;;;;3.50;1.67;;;;;;;;;;5052201;28;20619;-86
2023/12/26 04:58:24;;;;;;;4.23;1.70;;;;;;;;;;5053621;28;20282;-86
2023/12/26 05:00:52;;;;;;;3.10;1.80;;;;;;;;;;5051619;28;20226;-84
2023/12/26 05:03:19;;;;;;;4.57;2.43;;;;;;;;;;5052966;28;20210;-85
2023/12/26 05:05:46;;;;;;;2.50;1.80;;;;;;;;;;5052880;28;20295;-85
2023/12/26 05:08:13;;;;;;;5.27;2.20;;;;;;;;;;5047543;28;20578;-85
2023/12/26 05:10:40;;;;;;;5.00;2.90;;;;;;;;;;5052092;28;20237;-85
2023/12/26 05:13:07;;;;;;;6.10;2.70;;;;;;;;;;5049034;28;20611;-85
2023/12/26 05:15:34;;;;;;;4.77;1.93;;;;;;;;;;5045385;28;20295;-84
2023/12/26 05:18:03;;;;;;;6.17;2.07;;;;;;;;;;5053172;28;20234;-85
2023/12/26 05:20:30;;;;;;;2.77;2.30;;;;;;;;;;5052110;28;20234;-84
2023/12/26 05:22:57;;;;;;;5.80;2.70;;;;;;;;;;5052572;28;20202;-85
2023/12/26 05:25:24;;;;;;;2.13;1.87;;;;;;;;;;5052182;28;20233;-85
2023/12/26 05:27:51;;;;;;;6.13;2.33;;;;;;;;;;5052545;28;20208;-85
2023/12/26 05:30:19;;;;;;;4.40;1.80;;;;;;;;;;5052219;28;20202;-85
2023/12/26 05:32:46;;;;;;;2.80;2.30;;;;;;;;;;5052550;28;20418;-84
2023/12/26 05:35:14;;;;;;;4.43;1.87;;;;;;;;;;5052228;28;20244;-85
2023/12/26 05:37:41;;;;;;;5.20;1.97;;;;;;;;;;5052374;28;20213;-86
2023/12/26 05:40:08;;;;;;;2.93;1.87;;;;;;;;;;5051504;28;20594;-85
2023/12/26 05:42:35;;;;;;;2.67;1.90;;;;;;;;;;5051992;28;20202;-85
2023/12/26 05:45:03;;;;;;;4.97;2.17;;;;;;;;;;5052343;28;20859;-84
2023/12/26 05:47:30;;;;;;;2.73;1.80;;;;;;;;;;5052284;28;20580;-85
2023/12/26 05:49:58;;;;;;;3.17;2.20;;;;;;;;;;5051877;28;20217;-83
2023/12/26 05:52:27;;;;;;;2.23;2.03;;;;;;;;;;5051058;28;20241;-82
2023/12/26 05:54:55;;;;;;;1.97;1.80;;;;;;;;;;5051664;28;20205;-82
2023/12/26 05:57:22;;;;;;;3.17;1.90;;;;;;;;;;5051517;28;20260;-82
2023/12/26 05:59:49;;;;;;;4.13;3.07;;;;;;;;;;5051570;28;20598;-82
2023/12/26 06:02:16;;;;;;;2.93;1.67;;;;;;;;;;5035479;28;20231;-82
2023/12/26 06:04:43;;;;;;;2.67;1.67;;;;;;;;;;5051624;28;20608;-82
2023/12/26 06:07:11;;;;;;;8.43;2.70;;;;;;;;;;5049401;28;20222;-82
2023/12/26 06:09:40;;;;;;;2.30;1.83;;;;;;;;;;5051044;28;20228;-82
2023/12/26 06:12:07;;;;;;;2.20;2.00;;;;;;;;;;5050181;28;20641;-80
2023/12/26 06:14:34;;;;;;;3.97;1.83;;;;;;;;;;5050977;28;20214;-81
2023/12/26 06:17:01;;;;;;;3.47;2.13;;;;;;;;;;5054916;28;20290;-80
2023/12/26 06:19:28;;;;;;;6.03;2.23;;;;;;;;;;5070806;28;20225;-80
2023/12/26 06:21:55;;;;;;;3.07;1.87;;;;;;;;;;5056776;28;20229;-80
2023/12/26 06:24:22;;;;;;;3.90;1.80;;;;;;;;;;5067491;28;20255;-81
2023/12/26 06:26:51;;;;;;;5.30;2.63;;;;;;;;;;5050891;28;20721;-81
2023/12/26 06:29:18;;;;;;;2.73;2.40;;;;;;;;;;5058894;28;20275;-81
2023/12/26 06:31:45;;;;;;;4.90;2.03;;;;;;;;;;5058485;28;21411;-80
2023/12/26 06:34:12;;;;;;;5.27;2.50;;;;;;;;;;5067019;28;20205;-80
2023/12/26 06:36:39;;;;;;;5.63;2.47;;;;;;;;;;5070320;28;20229;-80
2023/12/26 06:39:06;;;;;;;2.10;1.90;;;;;;;;;;5070907;28;20711;-80
2023/12/26 06:41:33;;;;;;;3.80;1.97;;;;;;;;;;5061251;28;20237;-81
2023/12/26 06:44:01;;;;;;;3.40;2.00;;;;;;;;;;5056683;28;20267;-81
2023/12/26 06:46:28;;;;;;;3.97;1.90;;;;;;;;;;5068485;28;20238;-81
2023/12/26 06:48:55;;;;;;;4.27;1.80;;;;;;;;;;5062491;28;20637;-81
2023/12/26 06:51:22;;;;;;;3.07;1.97;;;;;;;;;;5061577;28;20225;-80
2023/12/26 06:53:49;;;;;;;5.23;2.00;;;;;;;;;;5066103;28;20206;-81
2023/12/26 06:56:16;;;;;;;5.70;2.17;;;;;;;;;;5058546;28;20287;-79
2023/12/26 06:58:44;;;;;;;4.00;2.67;;;;;;;;;;5058798;28;20758;-79
2023/12/26 07:01:13;;;;;;;5.60;2.30;;;;;;;;;;5058416;28;20250;-79
2023/12/26 07:03:40;;;;;;;3.53;2.03;;;;;;;;;;5066725;28;20217;-79
2023/12/26 07:06:07;;;;;;;2.60;2.40;;;;;;;;;;5065121;28;20274;-79
2023/12/26 07:08:34;;;;;;;3.93;2.10;;;;;;;;;;5053732;28;20272;-80
2023/12/26 07:11:01;;;;;;;4.17;1.90;;;;;;;;;;5061392;28;20236;-79
2023/12/26 07:13:28;;;;;;;2.20;2.00;;;;;;;;;;5070013;28;20239;-79
2023/12/26 07:15:55;;;;;;;3.60;2.13;;;;;;;;;;5070232;28;20233;-79
2023/12/26 07:18:24;;;;;;;3.70;2.17;;;;;;;;;;5069572;28;20221;-79
2023/12/26 07:20:51;;;;;;;3.03;2.10;;;;;;;;;;5049768;28;20279;-79
2023/12/26 07:23:18;;;;;;;5.97;2.30;;;;;;;;;;5050616;28;20255;-79
2023/12/26 07:25:45;;;;;;;2.20;2.00;;;;;;;;;;5053967;28;20641;-79
2023/12/26 07:28:14;;;;;;;2.10;2.00;;;;;;;;;;5054324;28;20205;-79
2023/12/26 07:30:41;;;;;;;4.27;2.00;;;;;;;;;;5053330;28;20218;-79
2023/12/26 07:33:08;;;;;;;3.70;1.90;;;;;;;;;;5054023;28;20660;-79
2023/12/26 07:35:37;;;;;;;4.80;2.20;;;;;;;;;;5053457;28;20237;-78
2023/12/26 07:38:04;;;;;;;2.93;1.80;;;;;;;;;;5054098;28;20206;-79
2023/12/26 07:40:32;;;;;;;2.10;1.80;;;;;;;;;;5053509;28;20664;-79
2023/12/26 07:42:59;;;;;;;1.80;1.70;;;;;;;;;;5054627;28;20196;-79
2023/12/26 07:45:26;;;;;;;2.00;1.57;;;;;;;;;;5054164;28;20299;-79
2023/12/26 07:47:53;;;;;;;5.13;2.10;;;;;;;;;;5054521;28;20665;-78
2023/12/26 07:50:22;;;;;;;3.40;1.57;;;;;;;;;;5054347;28;20620;-79
2023/12/26 07:52:50;;;;;;;4.60;2.07;;;;;;;;;;5054641;28;20206;-80
2023/12/26 07:55:17;;;;;;;3.17;2.00;;;;;;;;;;5054141;28;20613;-79
2023/12/26 07:57:45;;;;;;;1.63;1.53;;;;;;;;;;5054482;28;20300;-78
2023/12/26 08:00:12;;;;;;;2.90;1.60;;;;;;;;;;5053999;28;20320;-78
2023/12/26 08:02:39;;;;;;;2.70;2.07;;;;;;;;;;5054393;28;20256;-79
2023/12/26 08:05:07;;;;;;;5.70;1.80;;;;;;;;;;5053679;28;20244;-78
2023/12/26 08:07:34;;;;;;;2.13;1.50;;;;;;;;;;5054249;28;20988;-78
2023/12/26 08:10:02;;;;;;;1.93;1.60;;;;;;;;;;5054377;28;20226;-78
2023/12/26 08:12:29;;;;;;;2.63;1.60;;;;;;;;;;5034191;28;20561;-78
2023/12/26 08:14:56;;;;;;;2.23;2.03;;;;;;;;;;5033985;28;20252;-77
2023/12/26 08:17:23;;;;;;;5.07;2.20;;;;;;;;;;5053314;28;20295;-79
2023/12/26 08:19:50;;;;;;;4.30;1.90;;;;;;;;;;5053801;28;20330;-79
2023/12/26 08:22:17;;;;;;;2.77;1.77;;;;;;;;;;5053764;28;20233;-79
2023/12/26 08:24:44;;;;;;;3.33;1.70;;;;;;;;;;5053980;28;20214;-79
2023/12/26 08:27:12;;;;;;;3.60;1.53;;;;;;;;;;5053855;28;20296;-79
2023/12/26 08:29:39;;;;;;;3.23;1.80;;;;;;;;;;5053868;28;20704;-79
2023/12/26 08:32:06;;;;;;;2.30;1.77;;;;;;;;;;5053886;28;20237;-79
2023/12/26 08:34:33;;;;;;;1.70;1.60;;;;;;;;;;5053492;28;20209;-79
2023/12/26 08:37:00;;;;;;;1.93;1.57;;;;;;;;;;5053616;28;20242;-78
2023/12/26 08:39:27;;;;;;;2.73;1.93;;;;;;;;;;5053695;28;20233;-78
2023/12/26 08:41:54;;;;;;;1.60;1.50;;;;;;;;;;5053470;28;20287;-78
2023/12/26 08:44:23;;;;;;;3.47;2.03;;;;;;;;;;5053949;28;20723;-78
2023/12/26 08:46:51;;;;;;;2.07;1.97;;;;;;;;;;5053423;28;20241;-79
2023/12/26 08:49:18;;;;;;;2.40;2.20;;;;;;;;;;5053568;28;20333;-78
2023/12/26 08:51:45;;;;;;;2.60;1.70;;;;;;;;;;5053047;28;20241;-78
2023/12/26 08:54:13;;;;;;;2.63;1.97;;;;;;;;;;5053322;28;20214;-79
2023/12/26 08:56:40;;;;;;;1.87;1.70;;;;;;;;;;5053092;28;20240;-79
2023/12/26 08:59:07;;;;;;;2.60;1.70;;;;;;;;;;5053789;28;20266;-78
2023/12/26 09:01:36;;;;;;;5.60;1.77;;;;;;;;;;5048499;28;20234;-79
2023/12/26 09:04:04;;;;;;;2.10;2.00;;;;;;;;;;5033533;28;20261;-78
2023/12/26 09:06:31;;;;;;;1.57;1.27;;;;;;;;;;5044802;28;20253;-79
2023/12/26 09:08:58;;;;;;;1.70;1.60;;;;;;;;;;5053342;28;20264;-78
2023/12/26 09:11:25;;;;;;;3.03;1.70;;;;;;;;;;5053028;28;20665;-79
2023/12/26 09:13:52;;;;;;;2.43;1.70;;;;;;;;;;5053082;28;20222;-79
2023/12/26 09:16:19;;;;;;;3.43;1.80;;;;;;;;;;5052758;28;20237;-80
2023/12/26 09:18:47;;;;;;;2.97;1.80;;;;;;;;;;5040526;28;20284;-81
2023/12/26 09:21:14;;;;;;;2.67;1.90;;;;;;;;;;5042978;28;20249;-79
2023/12/26 09:23:41;;;;;;;2.10;1.73;;;;;;;;;;5053133;28;20202;-79
2023/12/26 09:26:08;;;;;;;1.30;1.30;;;;;;;;;;5052964;28;20283;-79
2023/12/26 09:28:35;;;;;;;2.83;1.90;;;;;;;;;;5052882;28;20230;-79
2023/12/26 09:31:02;;;;;;;1.77;1.50;;;;;;;;;;5052796;28;20241;-79
2023/12/26 09:33:29;;;;;;;5.57;1.50;;;;;;;;;;5053270;28;20734;-79
2023/12/26 09:35:58;;;;;;;1.83;1.60;;;;;;;;;;5052463;28;20242;-80
2023/12/26 09:38:24;;;;;;;2.57;1.40;;;;;;;;;;5052711;28;20364;-82
2023/12/26 09:40:52;;;;;;;2.30;2.10;;;;;;;;;;5052455;28;20234;-83
2023/12/26 09:43:19;;;;;;;1.57;1.47;;;;;;;;;;5052217;28;20281;-80
2023/12/26 09:45:46;;;;;;;2.03;1.83;;;;;;;;;;5050045;28;20735;-80
2023/12/26 09:48:13;;;;;;;2.87;1.60;;;;;;;;;;5052157;28;20255;-79
2023/12/26 09:50:40;;;;;;;1.47;1.40;;;;;;;;;;5052275;28;20237;-79
2023/12/26 09:53:10;;;;;;;2.87;1.70;;;;;;;;;;5052375;28;20618;-81
2023/12/26 09:55:37;;;;;;;1.73;1.60;;;;;;;;;;5051919;28;20237;-81
2023/12/26 09:58:04;;;;;;;1.30;1.30;;;;;;;;;;5052525;28;20206;-79
2023/12/26 10:00:31;;;;;;;1.70;1.43;;;;;;;;;;5051938;28;20287;-79
2023/12/26 10:02:58;;;;;;;1.27;1.27;;;;;;;;;;5052220;28;20569;-79
2023/12/26 10:05:25;;;;;;;2.00;1.50;;;;;;;;;;5051813;28;20241;-79
2023/12/26 10:07:52;;;;;;;3.83;1.67;;;;;;;;;;5052132;28;20565;-79
2023/12/26 10:10:20;;;;;;;1.40;1.33;;;;;;;;;;5051768;28;20206;-79
2023/12/26 10:12:48;;;;;;;3.33;2.00;;;;;;;;;;5052072;28;20216;-80
2023/12/26 10:15:15;;;;;;;1.83;1.33;;;;;;;;;;5051599;28;20218;-79
2023/12/26 10:17:43;;;;;;;1.33;1.33;;;;;;;;;;5051998;28;20669;-80
2023/12/26 10:20:12;;;;;;;1.60;1.50;;;;;;;;;;5051540;28;20230;-80
2023/12/26 10:22:42;;;;;;;1.13;1.13;;;;;;;;;;5051952;28;20209;-79
2023/12/26 10:25:09;;;;;;;2.20;1.20;;;;;;;;;;5051467;28;20221;-80
2023/12/26 10:27:38;;;;;;;1.77;1.67;;;;;;;;;;5051708;28;20202;-79
2023/12/26 10:30:05;;;;;;;1.50;1.40;;;;;;;;;;5051282;28;20313;-79
2023/12/26 10:32:33;;;;;;;1.47;1.37;;;;;;;;;;5052034;28;20229;-79
2023/12/26 10:35:13;;;;;;;1.70;1.60;;;;;;;;;;5051551;28;20214;-80
2023/12/26 10:37:40;;;;;;;2.50;1.50;;;;;;;;;;5051279;28;20229;-79
2023/12/26 10:40:07;;;;;;;1.57;1.50;;;;;;;;;;5051203;28;20291;-80
2023/12/26 10:42:36;;;;;;;6.03;1.47;;;;;;;;;;5051782;28;20202;-79
2023/12/26 10:45:05;;;;;;;1.70;1.60;;;;;;;;;;5051139;28;20271;-80
2023/12/26 10:47:32;;;;;;;2.17;1.67;;;;;;;;;;5051637;28;20210;-79
2023/12/26 10:50:01;;;;;;;1.10;1.10;;;;;;;;;;5051580;28;20520;-79
2023/12/26 10:52:28;;;;;;;1.30;1.30;;;;;;;;;;5051430;28;20712;-80
2023/12/26 10:54:55;;;;;;;1.10;1.10;;;;;;;;;;5051349;28;20312;-80
2023/12/26 10:57:23;;;;;;;2.00;1.90;;;;;;;;;;5050846;28;20234;-80
2023/12/26 10:59:50;;;;;;;1.80;1.70;;;;;;;;;;5051331;28;20266;-80
2023/12/26 11:02:17;;;;;;;1.70;1.60;;;;;;;;;;5051048;28;20355;-80
2023/12/26 11:04:44;;;;;;;1.30;1.30;;;;;;;;;;5051298;28;20589;-80
2023/12/26 11:07:11;;;;;;;1.30;1.30;;;;;;;;;;5050950;28;20719;-80
2023/12/26 11:09:37;;;;;;;1.47;1.30;;;;;;;;;;5051205;28;20229;-80
2023/12/26 11:12:03;;;;;;;1.80;1.70;;;;;;;;;;5051002;28;20236;-80
2023/12/26 11:14:31;;;;;;;1.47;1.40;;;;;;;;;;5051190;28;20213;-80
2023/12/26 11:16:57;;;;;;;1.50;1.40;;;;;;;;;;5050936;28;20272;-80
2023/12/26 11:19:24;;;;;;;1.27;1.27;;;;;;;;;;5051294;28;20591;-80
2023/12/26 11:21:51;;;;;;;1.47;1.43;;;;;;;;;;5050818;28;20243;-80
2023/12/26 11:24:17;;;;;;;1.40;1.40;;;;;;;;;;5051180;28;20742;-80
2023/12/26 11:26:44;;;;;;;1.30;1.30;;;;;;;;;;5050785;28;20240;-80
2023/12/26 11:29:11;;;;;;;1.47;1.37;;;;;;;;;;5051440;28;20245;-80
2023/12/26 11:31:38;;;;;;;1.60;1.50;;;;;;;;;;5050935;28;20234;-80
2023/12/26 11:34:08;;;;;;;1.30;1.30;;;;;;;;;;5051422;28;20209;-81
2023/12/26 11:36:36;;;;;;;2.30;1.50;;;;;;;;;;5050850;28;20230;-80
2023/12/26 11:39:02;;;;;;;1.37;1.37;;;;;;;;;;5051000;28;20233;-80
2023/12/26 11:41:29;;;;;;;1.10;1.10;;;;;;;;;;5050864;28;20284;-80
2023/12/26 11:43:56;;;;;;;1.53;1.43;;;;;;;;;;5050967;28;20213;-80
2023/12/26 11:46:22;;;;;;;2.07;1.90;;;;;;;;;;5050620;28;20234;-80
2023/12/26 11:48:48;;;;;;;1.50;1.40;;;;;;;;;;5050762;28;20226;-80
2023/12/26 11:51:15;;;;;;;1.50;1.40;;;;;;;;;;5050669;28;20646;-80
2023/12/26 11:53:42;;;;;;;1.53;1.43;;;;;;;;;;5050821;28;20210;-80
2023/12/26 11:56:09;;;;;;;1.40;1.30;;;;;;;;;;5050722;28;20234;-80
2023/12/26 11:58:36;;;;;;;1.43;1.43;;;;;;;;;;5050876;28;20222;-80
2023/12/26 12:01:02;;;;;;;1.30;1.30;;;;;;;;;;5050528;28;20658;-80
2023/12/26 12:03:28;;;;;;;1.40;1.37;;;;;;;;;;5050860;28;20607;-80
2023/12/26 12:06:14;;;;;;;2.40;1.40;;;;;;;;;;5050342;28;20656;-81
2023/12/26 12:09:02;;;;;;;1.30;1.30;;;;;;;;;;5050830;28;20230;-80
2023/12/26 12:11:29;;;;;;;1.27;1.27;;;;;;;;;;5053919;28;20257;-80
2023/12/26 12:13:55;;;;;;;1.20;1.20;;;;;;;;;;5054488;28;20225;-80
2023/12/26 12:16:22;;;;;;;1.20;1.20;;;;;;;;;;5054139;28;20230;-80
2023/12/26 12:18:57;;;;;;;1.43;1.40;;;;;;;;;;5054145;28;20712;-80
2023/12/26 12:21:23;;;;;;;1.50;1.50;;;;;;;;;;5054108;28;20314;-80
2023/12/26 12:23:49;;;;;;;1.10;1.10;;;;;;;;;;5054062;28;20293;-80
2023/12/26 12:26:17;;;;;;;1.63;1.53;;;;;;;;;;5053980;28;20230;-80
2023/12/26 12:28:58;;;;;;;1.10;1.10;;;;;;;;;;5054088;28;20226;-80
2023/12/26 12:31:25;;;;;;;2.10;1.60;;;;;;;;;;5053729;28;20748;-80
2023/12/26 12:34:10;;;;;;;1.30;1.20;;;;;;;;;;5054021;28;20263;-80
2023/12/26 12:36:38;;;;;;;1.73;0.90;;;;;;;;;;5053694;28;20340;-80
2023/12/26 12:39:04;;;;;;;1.20;1.20;;;;;;;;;;5054356;28;20250;-80
2023/12/26 12:41:34;;;;;;;1.20;1.20;;;;;;;;;;5053801;28;20259;-80
2023/12/26 12:44:01;;;;;;;1.50;1.40;;;;;;;;;;5054067;28;20209;-80
2023/12/26 12:46:27;;;;;;;1.50;1.20;;;;;;;;;;5053539;28;20242;-80
2023/12/26 12:48:54;;;;;;;1.10;1.10;;;;;;;;;;5053673;28;20319;-80
2023/12/26 12:51:21;;;;;;;1.30;1.30;;;;;;;;;;5053433;28;20703;-80
2023/12/26 12:53:47;;;;;;;1.40;1.30;;;;;;;;;;5053632;28;20340;-80
2023/12/26 12:56:13;;;;;;;1.10;1.10;;;;;;;;;;5053348;28;20308;-80
2023/12/26 12:58:41;;;;;;;1.30;1.30;;;;;;;;;;5053552;28;20222;-80
2023/12/26 13:01:07;;;;;;;1.20;1.13;;;;;;;;;;5053313;28;20237;-80
2023/12/26 13:03:33;;;;;;;1.23;1.10;;;;;;;;;;5053569;28;20198;-80
2023/12/26 13:06:00;;;;;;;1.37;1.33;;;;;;;;;;5053387;28;20244;-80
2023/12/26 13:08:26;;;;;;;1.57;1.47;;;;;;;;;;5053508;28;20291;-80
2023/12/26 13:10:52;;;;;;;1.37;1.27;;;;;;;;;;5053129;28;20234;-79
2023/12/26 13:13:19;;;;;;;1.40;1.30;;;;;;;;;;5053241;28;20209;-80
2023/12/26 13:15:46;;;;;;;1.20;1.10;;;;;;;;;;5052861;28;20234;-80
2023/12/26 13:18:13;;;;;;;1.13;1.13;;;;;;;;;;5053502;28;20209;-80
2023/12/26 13:20:40;;;;;;;1.33;1.33;;;;;;;;;;5052215;28;20242;-80
2023/12/26 13:23:06;;;;;;;1.63;1.50;;;;;;;;;;5052698;28;20218;-80
2023/12/26 13:25:38;;;;;;;2.30;1.97;;;;;;;;;;5052906;28;20230;-80
2023/12/26 13:28:06;;;;;;;2.23;1.50;;;;;;;;;;5053201;28;20697;-80
2023/12/26 13:30:32;;;;;;;1.80;1.67;;;;;;;;;;5052571;28;20688;-80
2023/12/26 13:33:01;;;;;;;1.20;1.20;;;;;;;;;;5052853;28;20232;-80
2023/12/26 13:35:28;;;;;;;1.40;1.40;;;;;;;;;;5052693;28;20261;-80
2023/12/26 13:37:54;;;;;;;1.23;1.23;;;;;;;;;;5052905;28;20209;-80
2023/12/26 13:40:20;;;;;;;1.27;1.27;;;;;;;;;;5052274;28;20222;-79
2023/12/26 13:42:47;;;;;;;1.20;1.20;;;;;;;;;;5052774;28;20221;-80
2023/12/26 13:45:14;;;;;;;1.43;1.40;;;;;;;;;;5052450;28;20665;-79
2023/12/26 13:47:40;;;;;;;1.37;1.37;;;;;;;;;;5052796;28;20225;-80
2023/12/26 13:50:08;;;;;;;1.30;1.30;;;;;;;;;;5052423;28;20248;-79
2023/12/26 13:52:34;;;;;;;2.00;1.37;;;;;;;;;;5052816;28;20702;-79
2023/12/26 13:55:01;;;;;;;2.10;2.00;;;;;;;;;;5052733;28;20565;-79
2023/12/26 13:57:27;;;;;;;1.70;1.60;;;;;;;;;;5052447;28;20279;-79
2023/12/26 13:59:54;;;;;;;1.13;1.13;;;;;;;;;;5052278;28;20225;-79
2023/12/26 14:02:21;;;;;;;1.30;1.20;;;;;;;;;;5032729;28;20243;-79
2023/12/26 14:04:48;;;;;;;1.27;1.20;;;;;;;;;;5032182;28;20284;-79
2023/12/26 14:07:19;;;;;;;2.03;1.33;;;;;;;;;;5031951;28;20260;-79
2023/12/26 14:09:46;;;;;;;1.37;1.27;;;;;;;;;;5032199;28;20226;-79
2023/12/26 14:12:13;;;;;;;1.00;1.00;;;;;;;;;;5032825;28;20237;-79
2023/12/26 14:14:40;;;;;;;2.07;1.53;;;;;;;;;;5032515;28;20214;-79
2023/12/26 14:17:06;;;;;;;1.87;1.50;;;;;;;;;;5031941;28;20280;-79
2023/12/26 14:19:34;;;;;;;1.40;1.30;;;;;;;;;;5032036;28;20219;-78
2023/12/26 14:22:02;;;;;;;1.33;1.33;;;;;;;;;;5031479;28;20242;-80
2023/12/26 14:24:30;;;;;;;1.30;1.20;;;;;;;;;;5032084;28;20353;-79
2023/12/26 14:26:57;;;;;;;2.53;1.53;;;;;;;;;;5031741;28;20235;-79
2023/12/26 14:29:24;;;;;;;1.40;1.30;;;;;;;;;;5032031;28;20237;-79
2023/12/26 14:31:51;;;;;;;2.00;1.77;;;;;;;;;;5031183;28;20238;-79
2023/12/26 14:34:18;;;;;;;1.40;1.40;;;;;;;;;;5031590;28;20621;-79
2023/12/26 14:36:45;;;;;;;1.30;1.20;;;;;;;;;;5031527;28;20231;-79
2023/12/26 14:39:12;;;;;;;1.10;1.10;;;;;;;;;;5031978;28;20222;-79
2023/12/26 14:41:40;;;;;;;1.63;1.50;;;;;;;;;;5031475;28;20244;-79
2023/12/26 14:44:07;;;;;;;1.50;1.40;;;;;;;;;;5031941;28;20202;-79